Time;durP1;ratioP1;P1;durP2;ratioP2;P2;SDS_P1;SDS_P2;PMS_P1;PMS_P2;Temp;Humidity;BMP_temperature;BMP_pressure;BME280_temperature;BME280_humidity;BME280_pressure;Samples;Min_cycle;Max_cycle;Signal;HPM_P1;HPM_P2
2021/04/09 00:00:04;;;;;;;10.27;5.13;;;4.40;63.70;;;;;;5105475;28;27401;-60
2021/04/09 00:04:10;;;;;;;6.00;4.13;;;4.40;63.90;;;;;;5101594;28;27479;-60
2021/04/09 00:07:49;;;;;;;7.97;4.78;;;4.30;63.80;;;;;;5101600;28;27477;-60
2021/04/09 00:11:16;;;;;;;6.32;4.40;;;4.30;63.80;;;;;;5104435;28;27439;-60
2021/04/09 00:14:48;;;;;;;9.05;5.72;;;4.30;63.80;;;;;;5104509;28;27450;-60
2021/04/09 00:18:15;;;;;;;11.18;5.80;;;4.30;63.90;;;;;;5103692;28;27420;-60
2021/04/09 00:21:30;;;;;;;9.55;5.60;;;4.30;63.80;;;;;;5104528;28;27427;-62
2021/04/09 00:24:57;;;;;;;7.57;4.65;;;4.20;63.50;;;;;;5104914;28;27411;-59
2021/04/09 00:28:14;;;;;;;7.45;5.22;;;4.20;63.70;;;;;;5104470;28;27426;-60
2021/04/09 00:31:27;;;;;;;7.50;5.25;;;4.20;63.40;;;;;;5104643;28;27975;-60
2021/04/09 00:35:18;;;;;;;7.55;4.72;;;4.10;63.60;;;;;;5101339;28;27453;-60
2021/04/09 00:38:10;;;;;;;8.50;5.80;;;4.10;63.60;;;;;;5104256;28;27419;-60
2021/04/09 00:41:38;;;;;;;6.07;4.95;;;4.10;63.70;;;;;;5104536;28;27379;-60
2021/04/09 00:44:57;;;;;;;6.60;4.90;;;4.00;63.70;;;;;;5104234;28;27508;-60
2021/04/09 00:48:26;;;;;;;12.52;5.57;;;4.00;63.50;;;;;;5104373;28;27525;-60
2021/04/09 00:51:32;;;;;;;10.20;5.55;;;4.00;63.60;;;;;;5103151;28;27368;-60
2021/04/09 00:54:59;;;;;;;7.03;4.95;;;4.00;63.80;;;;;;5104339;28;27410;-60
2021/04/09 00:58:27;;;;;;;11.38;6.07;;;3.90;63.70;;;;;;5103680;28;27438;-60
2021/04/09 01:01:54;;;;;;;9.75;5.50;;;3.90;63.80;;;;;;5103175;28;27582;-60
2021/04/09 01:05:43;;;;;;;10.15;5.78;;;3.80;63.60;;;;;;5100903;28;27416;-60
2021/04/09 01:09:30;;;;;;;9.70;5.75;;;3.80;63.60;;;;;;5103308;28;27431;-60
2021/04/09 01:12:57;;;;;;;9.40;5.70;;;3.80;63.80;;;;;;5104289;28;27402;-60
2021/04/09 01:16:35;;;;;;;8.63;5.75;;;3.70;64.00;;;;;;5100943;28;27387;-60
2021/04/09 01:19:40;;;;;;;8.15;5.20;;;3.70;63.90;;;;;;5099916;28;27316;-60
2021/04/09 01:23:05;;;;;;;7.95;5.30;;;3.70;63.80;;;;;;5104080;28;27382;-60
2021/04/09 01:26:04;;;;;;;10.45;5.63;;;3.70;63.90;;;;;;5103712;28;27418;-60
2021/04/09 01:29:21;;;;;;;7.75;5.10;;;3.60;63.90;;;;;;5103976;28;27510;-60
2021/04/09 01:32:39;;;;;;;15.60;6.25;;;3.60;63.90;;;;;;5105954;28;27604;-60
2021/04/09 01:36:06;;;;;;;11.95;5.10;;;3.60;64.00;;;;;;5107079;28;27362;-60
2021/04/09 01:39:21;;;;;;;8.77;5.05;;;3.50;63.80;;;;;;5107027;28;27390;-60
2021/04/09 01:42:54;;;;;;;8.75;5.45;;;3.50;64.00;;;;;;5107583;28;27553;-60
2021/04/09 01:46:05;;;;;;;8.50;5.63;;;3.50;63.90;;;;;;5106948;28;27602;-60
2021/04/09 01:49:12;;;;;;;11.05;5.90;;;3.40;64.00;;;;;;5106844;28;27415;-60
2021/04/09 01:52:19;;;;;;;9.45;6.32;;;3.40;64.00;;;;;;5104993;28;27945;-60
2021/04/09 01:55:06;;;;;;;8.60;5.82;;;3.40;63.80;;;;;;5105681;28;27613;-60
2021/04/09 01:58:11;;;;;;;9.40;5.80;;;3.40;64.10;;;;;;5106533;28;27375;-60
2021/04/09 02:01:25;;;;;;;6.90;5.30;;;3.30;63.90;;;;;;5135473;27;27371;-60
2021/04/09 02:04:51;;;;;;;10.35;5.85;;;3.30;64.00;;;;;;5106727;28;27390;-60
2021/04/09 02:08:18;;;;;;;11.30;5.80;;;3.30;64.00;;;;;;5107099;28;27385;-60
2021/04/09 02:12:09;;;;;;;8.27;5.28;;;3.30;64.10;;;;;;5103488;28;27332;-60
2021/04/09 02:15:37;;;;;;;8.65;4.72;;;3.20;64.00;;;;;;5106743;28;27565;-59
2021/04/09 02:19:10;;;;;;;10.88;5.57;;;3.20;64.00;;;;;;5107068;28;27461;-59
2021/04/09 02:22:38;;;;;;;8.93;5.03;;;3.20;64.20;;;;;;5105845;28;27420;-60
2021/04/09 02:26:05;;;;;;;12.63;5.15;;;3.20;64.10;;;;;;5106062;28;27393;-60
2021/04/09 02:29:31;;;;;;;7.25;4.80;;;3.10;64.00;;;;;;5106849;28;27450;-60
2021/04/09 02:32:28;;;;;;;10.68;5.43;;;3.10;64.40;;;;;;5105956;28;27432;-59
2021/04/09 02:35:54;;;;;;;9.57;5.53;;;3.10;64.30;;;;;;5106534;28;27442;-60
2021/04/09 02:39:03;;;;;;;8.77;5.30;;;3.10;64.40;;;;;;5106591;28;27335;-59
2021/04/09 02:42:10;;;;;;;7.75;5.93;;;3.00;64.20;;;;;;5106123;27;27623;-60
2021/04/09 02:45:16;;;;;;;7.53;5.20;;;3.00;64.30;;;;;;5090782;28;27536;-60
2021/04/09 02:48:25;;;;;;;9.00;5.03;;;3.00;64.60;;;;;;5134022;27;27493;-59
2021/04/09 02:51:53;;;;;;;11.43;6.68;;;3.00;64.60;;;;;;5106261;28;27379;-60
2021/04/09 02:55:00;;;;;;;8.68;5.80;;;3.00;64.60;;;;;;5106110;28;27397;-60
2021/04/09 02:58:13;;;;;;;8.05;5.47;;;3.00;64.70;;;;;;5103070;28;27433;-60
2021/04/09 03:01:25;;;;;;;9.10;6.25;;;2.90;64.60;;;;;;5106030;28;27447;-60
2021/04/09 03:04:52;;;;;;;8.48;5.80;;;3.00;64.70;;;;;;5134113;27;27357;-60
2021/04/09 03:08:10;;;;;;;10.32;5.90;;;3.00;64.70;;;;;;5105935;28;27336;-60
2021/04/09 03:11:19;;;;;;;7.68;5.45;;;3.00;64.70;;;;;;5102872;28;27840;-60
2021/04/09 03:14:50;;;;;;;7.32;5.30;;;2.90;64.70;;;;;;5134237;27;27484;-60
2021/04/09 03:18:04;;;;;;;10.35;6.55;;;2.90;64.70;;;;;;5105357;28;27596;-59
2021/04/09 03:21:10;;;;;;;9.70;5.50;;;2.90;64.70;;;;;;5105224;28;27419;-60
2021/04/09 03:24:16;;;;;;;9.65;5.90;;;2.90;64.70;;;;;;5105657;28;27466;-60
2021/04/09 03:27:41;;;;;;;10.23;6.35;;;2.90;64.80;;;;;;5104659;28;27472;-60
2021/04/09 03:30:50;;;;;;;11.05;6.05;;;2.90;64.70;;;;;;5102313;28;27318;-60
2021/04/09 03:34:17;;;;;;;10.88;6.05;;;2.90;64.80;;;;;;5105680;28;27328;-59
2021/04/09 03:37:52;;;;;;;10.25;6.32;;;2.80;65.00;;;;;;5105315;28;27401;-60
2021/04/09 03:41:14;;;;;;;9.98;5.80;;;2.80;65.00;;;;;;5102225;28;27382;-60
2021/04/09 03:44:27;;;;;;;8.45;6.47;;;2.80;65.00;;;;;;5104168;28;27348;-60
2021/04/09 03:47:44;;;;;;;8.73;5.70;;;2.80;65.00;;;;;;5105370;28;27427;-60
2021/04/09 03:51:11;;;;;;;10.05;6.65;;;2.80;65.00;;;;;;5105466;28;27467;-60
2021/04/09 03:54:23;;;;;;;10.93;7.05;;;2.80;65.00;;;;;;5101055;28;27478;-60
2021/04/09 03:57:21;;;;;;;11.13;6.45;;;2.80;65.10;;;;;;5105345;28;27421;-60
2021/04/09 04:00:23;;;;;;;9.48;6.03;;;2.80;65.00;;;;;;5101933;28;27446;-59
2021/04/09 04:03:41;;;;;;;8.02;5.20;;;2.70;65.00;;;;;;5105131;28;27896;-60
2021/04/09 04:06:49;;;;;;;9.50;5.95;;;2.70;65.00;;;;;;5105445;28;27324;-59
2021/04/09 04:09:55;;;;;;;12.13;5.50;;;2.70;65.00;;;;;;5102949;28;27527;-60
2021/04/09 04:13:22;;;;;;;10.73;5.75;;;2.70;65.00;;;;;;5104672;28;27576;-60
2021/04/09 04:16:49;;;;;;;7.53;5.00;;;2.70;65.50;;;;;;5104173;28;27415;-59
2021/04/09 04:20:16;;;;;;;7.88;5.68;;;2.60;65.00;;;;;;5104040;28;27430;-59
2021/04/09 04:24:23;;;;;;;8.23;5.22;;;2.60;65.10;;;;;;5101368;28;27362;-60
2021/04/09 04:27:11;;;;;;;7.07;5.25;;;2.60;65.30;;;;;;5104504;28;27631;-61
2021/04/09 04:30:19;;;;;;;9.13;5.28;;;2.60;65.20;;;;;;5089849;28;27484;-60
2021/04/09 04:33:17;;;;;;;11.77;5.07;;;2.50;65.20;;;;;;5104686;28;27359;-59
2021/04/09 04:36:23;;;;;;;6.28;5.30;;;2.50;65.30;;;;;;5104318;28;27328;-60
2021/04/09 04:39:49;;;;;;;7.43;5.43;;;2.50;65.30;;;;;;5104267;28;27340;-60
2021/04/09 04:43:16;;;;;;;7.68;4.95;;;2.50;65.20;;;;;;5103886;28;27849;-60
2021/04/09 04:47:12;;;;;;;8.65;5.68;;;2.50;65.30;;;;;;5100956;28;27546;-60
2021/04/09 04:50:39;;;;;;;6.97;5.05;;;2.50;65.60;;;;;;5104652;28;27510;-60
2021/04/09 04:53:50;;;;;;;9.27;5.65;;;2.40;65.40;;;;;;5103886;28;27662;-59
2021/04/09 04:57:08;;;;;;;8.93;5.45;;;2.40;65.50;;;;;;5104088;28;27399;-60
2021/04/09 05:00:14;;;;;;;10.27;5.68;;;2.50;65.60;;;;;;5104512;28;27482;-60
2021/04/09 05:03:11;;;;;;;8.07;5.93;;;2.50;65.70;;;;;;5103868;28;27411;-59
2021/04/09 05:06:40;;;;;;;8.25;5.75;;;2.50;65.60;;;;;;5104104;28;27378;-60
2021/04/09 05:10:07;;;;;;;9.65;6.10;;;2.50;65.50;;;;;;5103344;28;27509;-60
2021/04/09 05:13:33;;;;;;;9.27;5.68;;;2.50;65.70;;;;;;5103244;28;27512;-59
2021/04/09 05:17:00;;;;;;;10.23;5.95;;;2.50;65.60;;;;;;5104113;28;27427;-60
2021/04/09 05:19:46;;;;;;;10.35;6.63;;;2.50;65.70;;;;;;5103410;28;27569;-60
2021/04/09 05:23:13;;;;;;;11.65;6.60;;;2.50;65.80;;;;;;5099993;28;27848;-60
2021/04/09 05:26:20;;;;;;;10.65;6.53;;;2.60;66.20;;;;;;5103456;28;27569;-60
2021/04/09 05:29:27;;;;;;;9.88;6.85;;;2.60;66.10;;;;;;5102913;28;27439;-59
2021/04/09 05:32:35;;;;;;;14.63;6.63;;;2.60;66.30;;;;;;5103225;28;27500;-60
2021/04/09 05:35:21;;;;;;;10.60;6.45;;;2.70;66.50;;;;;;5102518;28;27390;-61
2021/04/09 05:38:19;;;;;;;12.50;6.95;;;2.70;66.50;;;;;;5103769;28;27388;-60
2021/04/09 05:41:47;;;;;;;11.43;7.13;;;2.70;66.80;;;;;;5104152;28;27419;-59
2021/04/09 05:45:14;;;;;;;19.13;8.60;;;2.80;66.80;;;;;;5103425;28;27465;-59
2021/04/09 05:48:46;;;;;;;18.20;10.32;;;2.90;67.20;;;;;;5103905;28;27443;-59
2021/04/09 05:51:35;;;;;;;21.48;11.25;;;3.00;67.50;;;;;;5103792;28;27418;-60
2021/04/09 05:55:02;;;;;;;17.73;11.07;;;3.00;67.50;;;;;;5103373;28;27386;-60
2021/04/09 05:58:29;;;;;;;14.77;9.20;;;3.10;67.80;;;;;;5102403;28;27358;-59
2021/04/09 06:01:46;;;;;;;19.95;9.70;;;3.20;67.90;;;;;;5103596;28;27493;-60
2021/04/09 06:04:59;;;;;;;19.92;10.35;;;3.30;68.20;;;;;;5100208;28;27487;-59
2021/04/09 06:08:06;;;;;;;18.73;10.10;;;3.40;68.30;;;;;;5102826;28;27508;-59
2021/04/09 06:11:11;;;;;;;15.82;9.73;;;3.50;68.60;;;;;;5102582;28;27427;-60
2021/04/09 06:14:17;;;;;;;21.92;11.80;;;3.60;68.60;;;;;;5103630;28;27457;-59
2021/04/09 06:17:24;;;;;;;27.42;13.75;;;3.70;68.50;;;;;;5103308;27;27435;-60
2021/04/09 06:20:52;;;;;;;30.60;16.67;;;3.80;67.80;;;;;;5106866;28;27387;-60
2021/04/09 06:23:49;;;;;;;49.38;22.00;;;3.90;67.40;;;;;;5103863;28;27347;-59
2021/04/09 06:26:48;;;;;;;26.60;14.88;;;4.00;67.80;;;;;;5103742;28;27441;-60
2021/04/09 06:30:13;;;;;;;23.20;12.20;;;4.20;68.00;;;;;;5106844;28;27438;-60
2021/04/09 06:33:10;;;;;;;20.48;12.60;;;4.30;67.70;;;;;;5106987;28;27395;-60
2021/04/09 06:36:27;;;;;;;21.98;11.77;;;4.40;67.20;;;;;;5107022;28;27324;-60
2021/04/09 06:39:54;;;;;;;16.55;11.82;;;4.60;67.10;;;;;;5106775;28;27321;-60
2021/04/09 06:43:21;;;;;;;30.00;13.63;;;4.70;66.90;;;;;;5104600;28;27359;-60
2021/04/09 06:46:27;;;;;;;24.58;13.05;;;4.90;66.90;;;;;;5106274;28;27411;-60
2021/04/09 06:49:33;;;;;;;30.02;13.70;;;5.00;66.80;;;;;;5103073;28;27470;-60
2021/04/09 06:52:25;;;;;;;23.77;13.82;;;5.20;67.00;;;;;;5105441;28;28787;-60
2021/04/09 06:55:30;;;;;;;20.83;11.73;;;5.40;66.90;;;;;;5106554;28;27375;-60
2021/04/09 06:58:58;;;;;;;19.15;12.07;;;5.70;66.70;;;;;;5106071;28;27536;-60
2021/04/09 07:02:59;;;;;;;22.88;13.05;;;5.90;66.70;;;;;;5105570;28;27636;-59
2021/04/09 07:06:06;;;;;;;21.83;12.48;;;6.10;65.90;;;;;;5105712;28;27418;-60
2021/04/09 07:09:13;;;;;;;18.88;12.15;;;6.30;65.80;;;;;;5106196;28;27485;-60
2021/04/09 07:12:21;;;;;;;20.58;13.07;;;6.50;65.80;;;;;;5106008;28;27462;-60
2021/04/09 07:15:09;;;;;;;27.00;12.75;;;6.80;65.40;;;;;;5106293;28;27366;-60
2021/04/09 07:18:17;;;;;;;17.80;11.43;;;7.00;65.30;;;;;;5106263;28;27461;-60
2021/04/09 07:21:28;;;;;;;11.93;9.00;;;7.20;65.20;;;;;;5105123;28;27433;-60
2021/04/09 07:24:18;;;;;;;13.48;8.88;;;7.20;65.70;;;;;;5106401;28;27327;-60
2021/04/09 07:27:26;;;;;;;10.80;6.95;;;7.20;65.70;;;;;;5102830;28;27304;-60
2021/04/09 07:30:40;;;;;;;12.02;6.75;;;7.20;66.00;;;;;;5104905;27;27374;-59
2021/04/09 07:33:54;;;;;;;11.48;7.03;;;7.20;66.10;;;;;;5105795;28;27355;-60
2021/04/09 07:37:16;;;;;;;13.27;6.20;;;7.30;66.50;;;;;;5101872;28;27375;-60
2021/04/09 07:40:30;;;;;;;8.90;6.57;;;7.40;66.40;;;;;;5105774;28;27639;-60
2021/04/09 07:43:43;;;;;;;13.02;6.65;;;7.40;66.10;;;;;;5106050;28;27480;-60
2021/04/09 07:46:40;;;;;;;11.68;5.45;;;7.50;66.00;;;;;;5103147;28;27327;-61
2021/04/09 07:49:39;;;;;;;13.23;6.63;;;7.50;66.20;;;;;;5105513;28;27400;-60
2021/04/09 07:53:06;;;;;;;10.63;6.13;;;7.60;66.80;;;;;;5105438;28;27389;-59
2021/04/09 07:56:08;;;;;;;7.22;4.95;;;7.70;66.10;;;;;;5105055;28;27417;-60
2021/04/09 07:59:56;;;;;;;7.10;4.70;;;7.70;66.00;;;;;;5101368;28;27482;-60
2021/04/09 08:03:38;;;;;;;8.43;5.10;;;7.70;65.70;;;;;;5105088;28;27401;-60
2021/04/09 08:06:57;;;;;;;10.40;4.82;;;7.70;66.60;;;;;;5105552;28;27406;-60
2021/04/09 08:10:06;;;;;;;9.75;5.47;;;7.80;66.20;;;;;;5104332;28;27915;-59
2021/04/09 08:13:04;;;;;;;7.03;5.35;;;7.80;66.10;;;;;;5105401;28;27472;-60
2021/04/09 08:16:29;;;;;;;8.10;4.93;;;7.80;65.90;;;;;;5103688;28;27686;-60
2021/04/09 08:19:19;;;;;;;10.10;4.75;;;7.80;66.60;;;;;;5104594;28;27349;-60
2021/04/09 08:22:24;;;;;;;10.20;4.95;;;7.80;66.30;;;;;;5104970;28;27474;-60
2021/04/09 08:25:30;;;;;;;10.75;5.75;;;7.90;66.80;;;;;;5105299;28;27336;-60
2021/04/09 08:28:43;;;;;;;8.98;4.90;;;7.90;66.90;;;;;;5086974;28;27485;-60
2021/04/09 08:31:51;;;;;;;11.20;5.38;;;8.00;65.60;;;;;;5104603;28;27354;-60
2021/04/09 08:34:59;;;;;;;8.85;4.43;;;8.00;65.20;;;;;;5103819;28;27959;-59
2021/04/09 08:38:06;;;;;;;8.43;4.97;;;8.10;66.10;;;;;;5089715;28;27451;-59
2021/04/09 08:41:32;;;;;;;11.32;5.40;;;8.10;65.80;;;;;;5103486;28;27565;-60
2021/04/09 08:44:31;;;;;;;9.90;4.95;;;8.10;65.30;;;;;;5104706;28;27627;-60
2021/04/09 08:48:17;;;;;;;8.13;5.15;;;8.20;65.70;;;;;;5101484;28;27418;-60
2021/04/09 08:51:44;;;;;;;9.82;5.07;;;8.30;65.50;;;;;;5132222;27;27522;-60
2021/04/09 08:54:50;;;;;;;7.55;4.85;;;8.30;66.10;;;;;;5104692;28;27374;-60
2021/04/09 08:57:58;;;;;;;14.60;5.07;;;8.40;65.00;;;;;;5104891;28;27655;-60
2021/04/09 09:00:55;;;;;;;8.73;4.85;;;8.50;65.40;;;;;;5132822;27;27386;-60
2021/04/09 09:03:53;;;;;;;8.15;4.43;;;8.60;65.10;;;;;;5086433;28;27542;-59
2021/04/09 09:06:57;;;;;;;9.15;4.90;;;8.70;64.90;;;;;;5101502;28;27391;-60
2021/04/09 09:09:54;;;;;;;8.80;4.80;;;8.80;64.60;;;;;;5103356;28;27730;-60
2021/04/09 09:13:05;;;;;;;7.43;4.55;;;9.00;64.50;;;;;;5100932;28;27439;-61
2021/04/09 09:16:17;;;;;;;6.60;4.03;;;9.20;63.90;;;;;;5104426;28;27490;-59
2021/04/09 09:19:15;;;;;;;10.60;5.18;;;9.30;63.60;;;;;;5104387;28;27378;-60
2021/04/09 09:22:11;;;;;;;8.70;4.60;;;9.50;63.60;;;;;;5103519;28;27431;-60
2021/04/09 09:25:25;;;;;;;9.30;5.15;;;9.60;63.90;;;;;;5104220;28;28021;-59
2021/04/09 09:28:29;;;;;;;9.15;5.43;;;9.70;63.00;;;;;;5104220;28;27347;-60
2021/04/09 09:31:49;;;;;;;5.43;3.95;;;9.90;62.40;;;;;;5104290;28;27509;-60
2021/04/09 09:35:15;;;;;;;7.40;5.05;;;10.10;62.80;;;;;;5103473;28;27426;-59
2021/04/09 09:38:41;;;;;;;7.95;4.45;;;10.10;62.10;;;;;;5132396;27;27417;-60
2021/04/09 09:41:44;;;;;;;7.93;5.18;;;10.20;61.60;;;;;;5103815;28;27397;-59
2021/04/09 09:44:44;;;;;;;10.32;4.95;;;10.20;60.30;;;;;;5104271;28;26935;-59
2021/04/09 09:47:40;;;;;;;5.70;4.68;;;10.30;60.00;;;;;;5104201;28;27316;-60
2021/04/09 09:50:53;;;;;;;6.75;4.78;;;10.30;59.80;;;;;;5103923;28;27675;-60
2021/04/09 09:54:07;;;;;;;6.85;5.28;;;10.40;61.40;;;;;;5106782;28;27418;-60
2021/04/09 09:57:22;;;;;;;11.90;5.32;;;10.60;63.00;;;;;;5106884;28;27336;-60
2021/04/09 10:00:28;;;;;;;7.20;4.50;;;10.70;62.80;;;;;;5107662;28;27340;-59
2021/04/09 10:03:36;;;;;;;7.45;4.45;;;10.80;61.20;;;;;;5106751;28;27324;-60
2021/04/09 10:06:26;;;;;;;8.57;4.90;;;10.90;61.10;;;;;;5107147;28;27409;-60
2021/04/09 10:09:32;;;;;;;6.65;4.55;;;11.00;59.70;;;;;;5106619;28;27414;-60
2021/04/09 10:12:25;;;;;;;7.68;4.80;;;11.10;60.50;;;;;;5107236;28;27407;-60
2021/04/09 10:15:29;;;;;;;12.98;4.22;;;11.10;61.40;;;;;;5107263;28;27336;-60
2021/04/09 10:18:21;;;;;;;6.25;4.57;;;11.20;60.60;;;;;;5107218;28;27355;-60
2021/04/09 10:21:35;;;;;;;11.05;4.10;;;11.30;59.90;;;;;;5107192;28;27461;-60
2021/04/09 10:25:01;;;;;;;7.03;3.78;;;11.40;62.00;;;;;;5106069;28;27007;-60
2021/04/09 10:28:12;;;;;;;7.03;3.92;;;11.50;60.70;;;;;;5106520;28;27493;-60
2021/04/09 10:31:14;;;;;;;6.25;3.88;;;11.60;61.10;;;;;;5132148;27;27461;-60
2021/04/09 10:34:02;;;;;;;6.32;4.07;;;11.80;60.20;;;;;;5103705;28;27359;-60
2021/04/09 10:36:54;;;;;;;6.32;4.20;;;11.90;60.30;;;;;;5121018;27;27320;-60
2021/04/09 10:40:01;;;;;;;8.13;3.90;;;12.00;60.40;;;;;;5107107;28;27825;-60
2021/04/09 10:43:04;;;;;;;7.45;4.30;;;12.10;61.10;;;;;;5106602;28;27426;-60
2021/04/09 10:46:06;;;;;;;8.57;4.25;;;12.30;60.40;;;;;;5103772;28;27427;-59
2021/04/09 10:49:09;;;;;;;7.60;3.40;;;12.30;58.20;;;;;;5107000;28;27398;-60
2021/04/09 10:52:35;;;;;;;4.55;3.38;;;12.50;58.60;;;;;;5106632;28;28027;-60
2021/04/09 10:55:31;;;;;;;7.57;3.20;;;12.60;57.40;;;;;;5105849;28;27503;-59
2021/04/09 10:58:22;;;;;;;6.35;3.08;;;13.00;57.50;;;;;;5103249;28;27479;-59
2021/04/09 11:01:13;;;;;;;5.47;3.53;;;13.30;56.70;;;;;;5105751;28;27376;-60
2021/04/09 11:04:04;;;;;;;9.10;3.67;;;13.70;56.70;;;;;;5102463;28;27464;-60
2021/04/09 11:07:15;;;;;;;5.95;2.55;;;14.00;54.70;;;;;;5105972;28;27312;-59
2021/04/09 11:10:12;;;;;;;5.68;2.50;;;14.40;54.50;;;;;;5105444;28;27329;-59
2021/04/09 11:13:02;;;;;;;4.55;2.50;;;14.60;53.10;;;;;;5106478;28;27386;-60
2021/04/09 11:15:59;;;;;;;3.95;2.28;;;14.90;52.60;;;;;;5106630;28;27426;-60
2021/04/09 11:19:26;;;;;;;5.53;2.65;;;15.10;55.00;;;;;;5106615;28;27402;-61
2021/04/09 11:22:20;;;;;;;6.68;2.30;;;15.10;51.60;;;;;;5134395;27;27329;-59
2021/04/09 11:25:19;;;;;;;7.68;2.25;;;15.10;52.30;;;;;;5106671;28;27362;-60
2021/04/09 11:28:28;;;;;;;6.85;2.35;;;15.10;52.90;;;;;;5105408;28;27867;-60
2021/04/09 11:31:25;;;;;;;3.55;1.60;;;15.20;52.60;;;;;;5105594;27;27485;-60
2021/04/09 11:34:10;;;;;;;3.60;1.60;;;15.40;53.40;;;;;;5106364;28;27324;-62
2021/04/09 11:37:03;;;;;;;4.40;1.63;;;15.60;52.30;;;;;;5105987;28;27333;-60
2021/04/09 11:39:57;;;;;;;3.67;1.90;;;15.80;51.30;;;;;;5105894;28;27875;-60
2021/04/09 11:42:53;;;;;;;12.57;2.15;;;16.10;50.90;;;;;;5106088;28;27419;-59
2021/04/09 11:45:46;;;;;;;3.78;1.70;;;16.20;49.30;;;;;;5105826;28;27486;-59
2021/04/09 11:49:00;;;;;;;4.82;1.55;;;16.50;49.10;;;;;;5105747;28;27465;-60
2021/04/09 11:52:19;;;;;;;6.03;1.55;;;16.80;49.20;;;;;;5105198;28;27406;-59
2021/04/09 11:55:13;;;;;;;10.30;3.13;;;17.00;48.60;;;;;;5105309;28;27427;-59
2021/04/09 11:58:15;;;;;;;5.43;1.70;;;17.20;47.10;;;;;;5105952;28;27522;-59
2021/04/09 12:01:07;;;;;;;1.77;1.40;;;17.30;45.50;;;;;;5105598;28;27452;-59
2021/04/09 12:03:57;;;;;;;5.90;1.75;;;17.30;44.70;;;;;;5101738;28;27385;-59
2021/04/09 12:06:48;;;;;;;8.43;1.27;;;17.30;46.30;;;;;;5105456;28;27430;-59
2021/04/09 12:09:38;;;;;;;3.78;1.55;;;17.20;46.80;;;;;;5104977;28;27463;-59
2021/04/09 12:12:43;;;;;;;1.73;1.35;;;17.10;46.10;;;;;;5105694;28;27448;-59
2021/04/09 12:15:40;;;;;;;2.72;1.50;;;17.00;45.60;;;;;;5101194;27;27467;-59
2021/04/09 12:18:31;;;;;;;3.67;1.50;;;16.90;46.50;;;;;;5102004;28;27328;-59
2021/04/09 12:21:21;;;;;;;3.35;1.52;;;16.80;46.50;;;;;;5102043;28;27434;-59
2021/04/09 12:24:32;;;;;;;4.07;1.20;;;16.80;45.60;;;;;;5105267;28;27324;-59
2021/04/09 12:27:25;;;;;;;3.42;1.20;;;16.70;45.90;;;;;;5105435;28;27938;-59
2021/04/09 12:30:32;;;;;;;1.83;1.55;;;16.80;47.10;;;;;;5104987;28;27525;-59
2021/04/09 12:33:24;;;;;;;2.00;1.23;;;16.90;47.30;;;;;;5104985;28;27482;-59
2021/04/09 12:36:15;;;;;;;5.05;1.33;;;16.90;47.00;;;;;;5105357;28;27325;-59
2021/04/09 12:39:09;;;;;;;8.13;1.38;;;16.90;47.30;;;;;;5105271;28;27366;-59
2021/04/09 12:41:54;;;;;;;3.03;1.52;;;16.90;47.00;;;;;;5105232;28;27372;-61
2021/04/09 12:45:00;;;;;;;4.53;1.70;;;16.90;47.60;;;;;;5104844;28;27412;-59
2021/04/09 12:48:04;;;;;;;2.97;1.58;;;17.00;48.10;;;;;;5104714;28;27377;-59
2021/04/09 12:50:55;;;;;;;3.55;1.50;;;17.00;47.50;;;;;;5104640;28;27354;-60
2021/04/09 12:53:46;;;;;;;6.95;1.52;;;17.00;48.30;;;;;;5105015;28;27533;-59
2021/04/09 12:56:37;;;;;;;5.65;1.90;;;17.00;47.40;;;;;;5105096;28;27359;-59
2021/04/09 12:59:34;;;;;;;4.88;1.73;;;17.00;47.80;;;;;;5104685;28;27464;-59
2021/04/09 13:02:31;;;;;;;3.63;1.55;;;16.90;45.20;;;;;;5104873;28;27385;-59
2021/04/09 13:05:22;;;;;;;2.08;1.60;;;16.90;44.60;;;;;;5103309;28;27518;-59
2021/04/09 13:08:18;;;;;;;2.13;1.35;;;16.80;45.20;;;;;;5104625;28;27458;-59
2021/04/09 13:11:09;;;;;;;3.80;1.70;;;16.70;45.70;;;;;;5102830;28;27388;-59
2021/04/09 13:14:04;;;;;;;5.95;2.55;;;16.70;46.10;;;;;;5104332;28;27590;-59
2021/04/09 13:17:10;;;;;;;3.55;1.60;;;16.70;46.40;;;;;;5104458;28;27390;-59
2021/04/09 13:20:01;;;;;;;6.32;1.92;;;16.60;45.90;;;;;;5103867;28;27450;-59
2021/04/09 13:23:06;;;;;;;6.90;1.85;;;16.60;46.10;;;;;;5104714;28;27331;-59
2021/04/09 13:25:57;;;;;;;3.53;1.50;;;16.60;46.00;;;;;;5101081;27;27959;-59
2021/04/09 13:28:53;;;;;;;4.63;1.42;;;16.60;46.90;;;;;;5108265;28;27465;-59
2021/04/09 13:31:50;;;;;;;3.42;1.38;;;16.70;46.90;;;;;;5108004;28;26932;-59
2021/04/09 13:34:46;;;;;;;5.05;1.63;;;16.70;46.40;;;;;;5108273;28;27362;-58
2021/04/09 13:37:37;;;;;;;2.95;1.50;;;16.80;46.60;;;;;;5107839;28;27378;-59
2021/04/09 13:40:34;;;;;;;6.38;1.55;;;17.00;46.20;;;;;;5106941;28;27461;-59
2021/04/09 13:43:24;;;;;;;1.85;1.20;;;17.10;46.60;;;;;;5108129;28;27483;-59
2021/04/09 13:46:14;;;;;;;4.95;1.38;;;17.20;46.50;;;;;;5104081;28;26879;-59
2021/04/09 13:49:05;;;;;;;3.85;1.30;;;17.30;45.40;;;;;;5108062;28;27414;-59
2021/04/09 13:51:55;;;;;;;7.50;1.50;;;17.30;44.80;;;;;;5103605;28;27434;-59
2021/04/09 13:54:46;;;;;;;3.25;1.30;;;17.30;44.10;;;;;;5107963;28;27431;-59
2021/04/09 13:57:40;;;;;;;1.77;1.30;;;17.30;44.20;;;;;;5106184;28;27410;-59
2021/04/09 14:00:37;;;;;;;2.55;1.50;;;17.20;44.70;;;;;;5107572;28;27477;-59
2021/04/09 14:03:29;;;;;;;5.55;1.40;;;17.20;45.00;;;;;;5104197;28;27423;-59
2021/04/09 14:06:23;;;;;;;6.13;2.05;;;17.20;44.50;;;;;;5107722;28;27362;-59
2021/04/09 14:09:20;;;;;;;2.75;1.52;;;17.10;44.30;;;;;;5091455;28;27425;-59
2021/04/09 14:12:13;;;;;;;4.13;1.70;;;17.00;44.20;;;;;;5107262;28;27856;-59
2021/04/09 14:15:25;;;;;;;2.28;1.80;;;17.00;43.40;;;;;;5106822;28;27496;-59
2021/04/09 14:18:19;;;;;;;4.45;1.48;;;16.90;43.00;;;;;;5106467;28;27358;-59
2021/04/09 14:21:13;;;;;;;4.40;2.22;;;16.90;43.60;;;;;;5092276;28;27340;-59
2021/04/09 14:24:18;;;;;;;6.03;1.60;;;16.80;43.90;;;;;;5107083;28;27485;-59
2021/04/09 14:27:08;;;;;;;2.45;1.38;;;16.80;43.20;;;;;;5106963;28;27458;-59
2021/04/09 14:30:06;;;;;;;7.35;1.70;;;16.70;43.90;;;;;;5107157;28;27322;-59
2021/04/09 14:33:04;;;;;;;2.97;1.48;;;16.70;44.60;;;;;;5104031;28;27418;-59
2021/04/09 14:35:54;;;;;;;3.28;1.92;;;16.70;44.60;;;;;;5106517;28;27976;-59
2021/04/09 14:38:45;;;;;;;4.53;1.70;;;16.70;45.00;;;;;;5106543;28;27378;-59
2021/04/09 14:41:55;;;;;;;2.70;1.38;;;16.80;45.20;;;;;;5106972;28;27387;-59
2021/04/09 14:44:46;;;;;;;4.75;1.60;;;16.80;46.80;;;;;;5103666;28;27465;-59
2021/04/09 14:47:37;;;;;;;4.70;1.80;;;16.80;46.70;;;;;;5106878;28;27324;-59
2021/04/09 14:50:27;;;;;;;3.42;1.38;;;16.80;45.90;;;;;;5106607;28;27461;-59
2021/04/09 14:53:33;;;;;;;3.75;1.45;;;16.80;45.50;;;;;;5107122;28;27355;-59
2021/04/09 14:56:45;;;;;;;2.65;1.40;;;16.70;45.20;;;;;;5106582;28;27661;-59
2021/04/09 14:59:36;;;;;;;2.88;1.75;;;16.70;45.40;;;;;;5106604;28;27331;-59
2021/04/09 15:02:41;;;;;;;3.60;1.55;;;16.60;45.70;;;;;;5103288;28;27328;-59
2021/04/09 15:05:38;;;;;;;1.73;1.33;;;16.60;44.90;;;;;;5103495;28;27498;-59
2021/04/09 15:08:29;;;;;;;2.63;1.30;;;16.50;45.00;;;;;;5106774;28;27413;-59
2021/04/09 15:11:24;;;;;;;3.17;1.33;;;16.50;45.70;;;;;;5082681;28;27667;-61
2021/04/09 15:14:20;;;;;;;2.35;1.40;;;16.40;45.80;;;;;;5070887;28;27472;-59
2021/04/09 15:17:06;;;;;;;4.40;1.52;;;16.40;46.10;;;;;;5066755;28;27461;-61
2021/04/09 15:19:59;;;;;;;4.07;1.60;;;16.40;45.80;;;;;;5070050;28;27004;-59
2021/04/09 15:23:08;;;;;;;6.32;1.92;;;16.40;45.60;;;;;;5081166;28;27398;-59
2021/04/09 15:25:59;;;;;;;4.88;1.65;;;16.40;45.30;;;;;;5083936;28;27534;-59
2021/04/09 15:28:49;;;;;;;2.15;1.38;;;16.40;46.00;;;;;;5084165;28;27472;-59
2021/04/09 15:31:40;;;;;;;3.45;1.58;;;16.40;46.40;;;;;;5082898;28;27439;-59
2021/04/09 15:34:37;;;;;;;3.00;1.63;;;16.30;45.80;;;;;;5084310;28;27454;-59
2021/04/09 15:37:34;;;;;;;3.30;1.63;;;16.30;45.50;;;;;;5084027;28;27474;-60
2021/04/09 15:40:33;;;;;;;3.42;1.30;;;16.30;46.40;;;;;;5083927;28;27365;-59
2021/04/09 15:43:31;;;;;;;1.77;0.98;;;16.30;46.30;;;;;;5106181;28;27354;-59
2021/04/09 15:46:38;;;;;;;1.85;1.17;;;16.30;47.80;;;;;;5102526;28;27411;-59
2021/04/09 15:49:29;;;;;;;1.60;1.15;;;16.30;48.40;;;;;;5105034;27;27469;-59
2021/04/09 15:52:19;;;;;;;2.83;1.15;;;16.40;48.30;;;;;;5105675;28;27366;-59
2021/04/09 15:55:33;;;;;;;2.63;1.65;;;16.40;48.60;;;;;;5105733;28;27422;-59
2021/04/09 15:58:24;;;;;;;5.05;2.08;;;16.30;48.30;;;;;;5089528;28;27407;-59
2021/04/09 16:01:22;;;;;;;4.18;1.90;;;16.30;47.70;;;;;;5105818;28;27450;-59
2021/04/09 16:04:28;;;;;;;2.42;1.50;;;16.30;47.60;;;;;;5105860;28;27403;-59
2021/04/09 16:07:19;;;;;;;2.60;1.70;;;16.30;48.30;;;;;;5105503;28;27416;-59
2021/04/09 16:10:31;;;;;;;3.33;1.40;;;16.30;48.30;;;;;;5104892;28;27324;-59
2021/04/09 16:13:27;;;;;;;5.63;1.73;;;16.30;48.30;;;;;;5102468;28;27476;-59
2021/04/09 16:16:35;;;;;;;4.78;1.52;;;16.20;48.90;;;;;;5105395;28;27402;-59
2021/04/09 16:19:27;;;;;;;4.38;1.40;;;16.20;49.30;;;;;;5104900;28;27409;-59